Aviation Digital Data Service (ADDS)

Output produced by METARs form (2057 UTC 20 October 2018)
found at http://www.aviationweather.gov/metar/data/
 
UTAA 202000Z VRB02KT 9999 NSC 11/05 Q1017 R88/70D NOSIG
TAF UTAA 201635Z 2018/2118 12014KT 6000 SCT050 530009 
     TEMPO 2018/2102 19012KT 
     TEMPO 2105/2112 09012G22KT
       
UTAT 202000Z 10008KT CAVOK 07/01 Q1022 R08/CLRD70 NOSIG
TAF UTAT 201636Z 2018/2118 09012KT CAVOK 530005 
     TEMPO 2018/2024 14012KT
       
UTAM 202000Z 00000KT 6000 NSC 10/03 Q1022 NOSIG
TAF UTAM 201630Z 2018/2118 11010KT 6000 NSC 530005 
     TEMPO 2018/2024 09008KT 
     TEMPO 2100/2104 3000 BR 
     BECMG 2104/2106 CAVOK 530009
       
UTAV 202000Z VRB02KT CAVOK 09/00 Q1021 NOSIG
TAF UTAV 201630Z 2018/2118 06012KT CAVOK 530005 
     TEMPO 2018/2024 VRB04KT
       
UTAK 202000Z 09004KT CAVOK 09/M02 Q1017 R16R/CLRD70 NOSIG
TAF UTAK 201630Z 2018/2118 15018KT CAVOK 530009 
     TEMPO 2018/2021 VRB04KT 
     TEMPO 2021/2203 SCT007 SCT100 
     TEMPO 2203/2210 09016KT SCT020 BKN100